createdAt,value
2022-08-12T00:00:10.249Z,81.49
2022-08-12T00:02:04.438Z,81.40
2022-08-12T00:03:17.685Z,81.78
2022-08-12T00:04:44.085Z,81.47
2022-08-12T00:06:06.739Z,81.69
2022-08-12T00:07:28.451Z,81.93
2022-08-12T00:08:51.873Z,82.08
2022-08-12T00:10:13.871Z,81.88
2022-08-12T00:11:35.309Z,82.04
2022-08-12T00:12:56.973Z,82.43
2022-08-12T00:14:18.557Z,81.64
2022-08-12T00:15:40.243Z,82.04
2022-08-12T00:17:02.017Z,81.70
2022-08-12T00:18:24.130Z,82.24
2022-08-12T00:19:47.293Z,82.12
2022-08-12T00:21:08.549Z,82.05
2022-08-12T00:22:30.463Z,81.84
2022-08-12T00:23:52.208Z,81.78
2022-08-12T00:25:17.652Z,81.80
2022-08-12T00:26:39.890Z,81.95
2022-08-12T00:28:02.170Z,82.11
2022-08-12T00:29:24.083Z,81.89
2022-08-12T00:30:45.839Z,82.37
2022-08-12T00:32:07.231Z,82.23
2022-08-12T00:33:38.561Z,82.34
2022-08-12T00:35:14.621Z,82.64
2022-08-12T00:36:36.455Z,82.17
2022-08-12T00:37:58.158Z,82.09
2022-08-12T00:39:19.605Z,81.99
2022-08-12T00:40:41.742Z,81.62
2022-08-12T00:42:03.247Z,82.23
2022-08-12T00:43:08.798Z,82.80
2022-08-12T00:44:13.579Z,82.59
2022-08-12T00:45:17.878Z,82.87
2022-08-12T00:46:32.999Z,82.96
2022-08-12T00:47:37.198Z,82.88
2022-08-12T00:48:42.388Z,82.55
2022-08-12T00:49:50.164Z,82.82
2022-08-12T00:50:56.551Z,82.73
2022-08-12T00:52:10.013Z,82.87
2022-08-12T00:53:14.445Z,82.54
2022-08-12T00:54:22.120Z,82.41
2022-08-12T00:55:26.977Z,82.83
2022-08-12T00:56:30.399Z,82.85
2022-08-12T00:57:37.123Z,82.68
2022-08-12T00:58:47.227Z,82.68
2022-08-12T00:59:55.643Z,82.79
2022-08-12T01:01:01.268Z,82.57
2022-08-12T01:02:11.032Z,82.82
2022-08-12T01:03:19.449Z,82.84
2022-08-12T01:04:42.767Z,82.71
2022-08-12T01:06:05.401Z,82.58
2022-08-12T01:07:28.998Z,82.34
2022-08-12T01:08:50.485Z,82.79
2022-08-12T01:10:13.239Z,82.66
2022-08-12T01:11:31.679Z,83.46
2022-08-12T01:12:35.124Z,83.19
2022-08-12T01:13:43.127Z,82.68
2022-08-12T01:14:46.405Z,82.81
2022-08-12T01:15:52.487Z,82.86
2022-08-12T01:16:55.690Z,82.62
2022-08-12T01:17:59.876Z,82.55
2022-08-12T01:19:04.264Z,82.24
2022-08-12T01:20:09.479Z,82.58
2022-08-12T01:21:17.579Z,82.42
2022-08-12T01:22:28.260Z,82.85
2022-08-12T01:24:30.442Z,82.70
2022-08-12T01:25:41.553Z,82.97
2022-08-12T01:27:00.497Z,82.29
2022-08-12T01:28:06.544Z,82.76
2022-08-12T01:29:11.538Z,82.59
2022-08-12T01:30:16.819Z,82.98
2022-08-12T01:31:21.081Z,82.87
2022-08-12T01:32:28.609Z,82.21
2022-08-12T01:33:35.749Z,82.99
2022-08-12T01:34:41.592Z,82.85
2022-08-12T01:35:58.017Z,82.67
2022-08-12T01:37:12.987Z,83.22
2022-08-12T01:38:21.077Z,83.50
2022-08-12T01:39:35.533Z,83.67
2022-08-12T01:40:45.043Z,83.23
2022-08-12T01:41:54.901Z,82.91
2022-08-12T01:42:59.381Z,83.49
2022-08-12T01:44:04.175Z,83.47
2022-08-12T01:45:08.276Z,83.51
2022-08-12T01:46:18.281Z,83.47
2022-08-12T01:47:31.274Z,83.28
2022-08-12T01:48:51.758Z,83.23
2022-08-12T01:50:09.638Z,83.00
2022-08-12T01:52:21.352Z,82.96
2022-08-12T01:52:58.102Z,82.72
2022-08-12T01:54:06.136Z,83.12
2022-08-12T01:55:11.020Z,82.77
2022-08-12T01:56:17.387Z,83.06
2022-08-12T01:57:58.986Z,83.38
2022-08-12T01:59:07.389Z,82.96
2022-08-12T02:00:19.312Z,83.27
2022-08-12T02:01:25.713Z,83.25
2022-08-12T02:02:35.232Z,83.22
2022-08-12T02:04:21.579Z,83.24
2022-08-12T02:05:49.877Z,82.91
2022-08-12T02:07:16.009Z,83.37
2022-08-12T02:08:46.527Z,82.88
2022-08-12T02:10:49.028Z,82.97
2022-08-12T02:11:47.997Z,83.07
2022-08-12T02:12:57.643Z,82.96
2022-08-12T02:14:33.463Z,83.22
2022-08-12T02:15:44.833Z,83.60
2022-08-12T02:17:13.882Z,83.16
2022-08-12T02:18:26.703Z,82.79
2022-08-12T02:19:42.078Z,82.97
2022-08-12T02:20:52.910Z,83.21
2022-08-12T02:22:15.012Z,83.44
2022-08-12T02:23:20.715Z,83.17
2022-08-12T02:24:24.785Z,83.49
2022-08-12T02:25:35.515Z,83.62
2022-08-12T02:26:41.911Z,83.42
2022-08-12T02:27:48.641Z,83.72
2022-08-12T02:28:52.549Z,83.30
2022-08-12T02:29:56.770Z,83.34
2022-08-12T02:31:04.998Z,83.54
2022-08-12T02:32:10.509Z,83.52
2022-08-12T02:33:13.822Z,83.96
2022-08-12T02:34:18.659Z,83.92
2022-08-12T02:35:23.521Z,83.88
2022-08-12T02:36:28.082Z,83.25
2022-08-12T02:37:36.141Z,84.00
2022-08-12T02:38:44.051Z,84.20
2022-08-12T02:39:50.019Z,84.04
2022-08-12T02:40:56.123Z,84.05
2022-08-12T02:42:04.062Z,83.81
2022-08-12T02:43:16.841Z,83.97
2022-08-12T02:44:20.680Z,84.29
2022-08-12T02:45:39.743Z,84.87
2022-08-12T02:46:50.475Z,84.37
2022-08-12T02:48:00.543Z,85.05
2022-08-12T02:49:06.655Z,84.63
2022-08-12T02:50:12.579Z,84.99
2022-08-12T02:51:24.632Z,85.59
2022-08-12T02:52:28.205Z,85.04
2022-08-12T02:53:34.511Z,84.75
2022-08-12T02:54:38.181Z,85.30
2022-08-12T02:55:42.993Z,85.16
2022-08-12T02:56:50.837Z,85.23
2022-08-12T02:57:56.117Z,84.86
2022-08-12T02:59:00.585Z,85.22
2022-08-12T03:00:06.443Z,85.31
2022-08-12T03:01:11.107Z,85.28
2022-08-12T03:02:15.011Z,84.72
2022-08-12T03:03:21.137Z,84.31
2022-08-12T03:04:27.039Z,84.52
2022-08-12T03:05:32.164Z,84.95
2022-08-12T03:06:46.995Z,84.73
2022-08-12T03:07:56.114Z,84.47
2022-08-12T03:09:04.021Z,84.65
2022-08-12T03:10:17.589Z,85.04
2022-08-12T03:11:26.229Z,84.97
2022-08-12T03:12:34.216Z,85.08
2022-08-12T03:13:42.093Z,84.90
2022-08-12T03:14:46.554Z,84.92
2022-08-12T03:15:50.076Z,84.87
2022-08-12T03:17:01.374Z,85.50
2022-08-12T03:18:25.613Z,85.38
2022-08-12T03:19:32.786Z,85.46
2022-08-12T03:20:38.284Z,85.29
2022-08-12T03:21:52.843Z,84.88
2022-08-12T03:23:09.939Z,84.71
2022-08-12T03:24:26.194Z,84.52
2022-08-12T03:25:34.778Z,85.02
2022-08-12T03:26:39.075Z,84.31
2022-08-12T03:27:49.905Z,84.77
2022-08-12T03:28:58.285Z,85.30
2022-08-12T03:30:01.461Z,84.73
2022-08-12T03:31:07.747Z,84.90
2022-08-12T03:32:35.629Z,85.89
2022-08-12T03:33:37.491Z,85.77
2022-08-12T03:34:41.824Z,86.13
2022-08-12T03:35:46.544Z,85.91
2022-08-12T03:36:49.731Z,85.55
2022-08-12T03:38:01.014Z,85.37
2022-08-12T03:39:36.493Z,85.49
2022-08-12T03:41:08.866Z,85.31
2022-08-12T03:42:28.826Z,85.26
2022-08-12T03:43:52.966Z,85.42
2022-08-12T03:45:30.163Z,85.16
2022-08-12T03:46:52.959Z,85.41
2022-08-12T03:48:18.804Z,85.84
2022-08-12T03:49:40.840Z,85.91
2022-08-12T03:51:02.482Z,85.93
2022-08-12T03:52:24.590Z,85.85
2022-08-12T03:53:49.074Z,85.22
2022-08-12T03:55:10.371Z,85.05
2022-08-12T03:56:32.125Z,85.96
2022-08-12T03:57:53.573Z,85.40
2022-08-12T03:59:16.345Z,85.80
2022-08-12T04:00:24.445Z,85.40
2022-08-12T04:01:27.989Z,85.45
2022-08-12T04:02:34.819Z,85.94
2022-08-12T04:03:53.564Z,86.08
2022-08-12T04:04:58.317Z,86.44
2022-08-12T04:06:01.364Z,86.03
2022-08-12T04:07:08.074Z,86.09
2022-08-12T04:08:11.847Z,86.24
2022-08-12T04:09:16.973Z,86.91
2022-08-12T04:10:20.375Z,87.00
2022-08-12T04:11:47.156Z,87.30
2022-08-12T04:13:15.261Z,87.03
2022-08-12T04:14:20.920Z,87.75
2022-08-12T04:15:29.137Z,88.16
2022-08-12T04:16:33.423Z,88.05
2022-08-12T04:18:06.446Z,88.16
2022-08-12T04:19:04.715Z,88.27
2022-08-12T04:20:10.107Z,88.89
2022-08-12T04:21:14.234Z,89.22
2022-08-12T04:22:17.491Z,89.55
2022-08-12T04:23:26.035Z,89.64
2022-08-12T04:24:30.400Z,89.87
2022-08-12T04:25:34.210Z,89.94
2022-08-12T04:26:39.703Z,90.16
2022-08-12T04:27:45.168Z,90.11
2022-08-12T04:28:49.289Z,90.13
2022-08-12T04:30:31.074Z,90.02
2022-08-12T04:31:18.544Z,89.51
2022-08-12T04:32:21.690Z,89.82
2022-08-12T04:33:27.162Z,89.57
2022-08-12T04:34:30.221Z,89.75
2022-08-12T04:35:34.400Z,89.60
2022-08-12T04:36:39.210Z,89.82
2022-08-12T04:37:59.364Z,89.66
2022-08-12T04:39:05.580Z,89.90
2022-08-12T04:40:14.521Z,89.82
2022-08-12T04:41:19.351Z,89.63
2022-08-12T04:42:26.421Z,89.79
2022-08-12T04:44:01.070Z,89.66
2022-08-12T04:44:54.153Z,89.96
2022-08-12T04:45:57.272Z,89.63
2022-08-12T04:47:03.028Z,89.64
2022-08-12T04:48:06.664Z,89.78
2022-08-12T04:49:10.831Z,90.11
2022-08-12T04:50:33.786Z,89.42
2022-08-12T04:51:40.653Z,89.55
2022-08-12T04:52:44.370Z,89.51
2022-08-12T04:53:49.688Z,89.75
2022-08-12T04:54:53.101Z,89.86
2022-08-12T04:55:57.367Z,89.61
2022-08-12T04:57:03.656Z,89.47
2022-08-12T04:58:10.185Z,89.47
2022-08-12T04:59:15.986Z,89.62
2022-08-12T05:00:20.310Z,90.13
2022-08-12T05:01:28.098Z,90.28
2022-08-12T05:02:33.731Z,90.30
2022-08-12T05:03:46.333Z,90.40
2022-08-12T05:04:52.994Z,90.38
2022-08-12T05:05:56.959Z,90.17
2022-08-12T05:07:01.118Z,90.56
2022-08-12T05:08:08.056Z,90.53
2022-08-12T05:09:13.365Z,90.75
2022-08-12T05:10:17.571Z,91.42
2022-08-12T05:11:24.294Z,91.60
2022-08-12T05:12:31.069Z,91.19
2022-08-12T05:13:37.811Z,91.35
2022-08-12T05:14:41.953Z,91.25
2022-08-12T05:15:53.086Z,91.85
2022-08-12T05:17:09.710Z,91.96
2022-08-12T05:18:14.609Z,91.75
2022-08-12T05:19:23.983Z,92.26
2022-08-12T05:20:27.222Z,92.24
2022-08-12T05:21:33.560Z,92.50
2022-08-12T05:22:37.338Z,92.71
2022-08-12T05:23:43.113Z,93.22
2022-08-12T05:24:47.909Z,92.95
2022-08-12T05:25:56.604Z,93.32
2022-08-12T05:27:00.595Z,93.32
2022-08-12T05:28:06.142Z,93.52
2022-08-12T05:30:07.677Z,93.46
2022-08-12T05:30:37.358Z,94.00
2022-08-12T05:31:47.797Z,93.90
2022-08-12T05:32:53.765Z,93.90
2022-08-12T05:33:59.462Z,94.31
2022-08-12T05:35:06.748Z,95.10
2022-08-12T05:36:14.135Z,95.15
2022-08-12T05:37:17.289Z,95.16
2022-08-12T05:38:39.221Z,95.13
2022-08-12T05:39:43.776Z,94.27
2022-08-12T05:40:46.812Z,94.48
2022-08-12T05:41:51.036Z,94.13
2022-08-12T05:42:54.215Z,93.71
2022-08-12T05:44:00.322Z,93.48
2022-08-12T05:45:03.369Z,93.09
2022-08-12T05:46:07.821Z,93.40
2022-08-12T05:47:14.871Z,92.73
2022-08-12T05:48:19.971Z,92.10
2022-08-12T05:49:25.591Z,91.78
2022-08-12T05:50:28.642Z,91.05
2022-08-12T05:51:40.545Z,90.81
2022-08-12T05:52:44.331Z,89.99
2022-08-12T05:53:48.657Z,89.14
2022-08-12T05:54:57.474Z,88.74
2022-08-12T05:56:02.230Z,88.59
2022-08-12T05:57:06.860Z,88.09
2022-08-12T05:58:09.889Z,87.54
2022-08-12T05:59:14.250Z,86.47
2022-08-12T06:00:18.600Z,85.88
2022-08-12T06:02:10.004Z,85.41
2022-08-12T06:02:48.335Z,85.05
2022-08-12T06:03:52.278Z,85.29
2022-08-12T06:05:00.595Z,84.11
2022-08-12T06:06:04.803Z,84.00
2022-08-12T06:07:59.630Z,83.64
2022-08-12T06:08:35.986Z,83.04
2022-08-12T06:09:40.143Z,83.49
2022-08-12T06:10:43.290Z,83.04
2022-08-12T06:12:04.279Z,81.93
2022-08-12T06:13:09.525Z,81.81
2022-08-12T06:14:13.632Z,81.52
2022-08-12T06:15:21.189Z,80.81
2022-08-12T06:16:25.694Z,80.03
2022-08-12T06:17:31.358Z,79.08
2022-08-12T06:18:35.831Z,78.55
2022-08-12T06:20:27.279Z,77.83
2022-08-12T06:21:04.942Z,78.30
2022-08-12T06:22:08.062Z,77.59
2022-08-12T06:23:12.363Z,76.67
2022-08-12T06:24:16.034Z,76.14
2022-08-12T06:25:27.110Z,76.20
2022-08-12T06:26:30.411Z,75.73
2022-08-12T06:27:34.972Z,75.01
2022-08-12T06:28:44.821Z,75.00
2022-08-12T06:30:07.958Z,74.60
2022-08-12T06:31:32.118Z,74.43
2022-08-12T06:32:35.509Z,74.58
2022-08-12T06:33:55.521Z,73.94
2022-08-12T06:35:26.534Z,73.33
2022-08-12T06:36:30.116Z,72.94
2022-08-12T06:37:40.383Z,72.16
2022-08-12T06:38:49.896Z,71.76
2022-08-12T06:39:53.231Z,71.79
2022-08-12T06:41:16.243Z,71.43
2022-08-12T06:42:38.790Z,71.11
2022-08-12T06:44:04.781Z,70.67
2022-08-12T06:45:12.198Z,70.17
2022-08-12T06:46:15.692Z,69.89
2022-08-12T06:47:22.396Z,69.91
2022-08-12T06:48:26.792Z,68.96
2022-08-12T06:49:35.014Z,68.54
2022-08-12T06:50:40.184Z,68.71
2022-08-12T06:51:56.146Z,68.41
2022-08-12T06:53:00.899Z,68.42
2022-08-12T06:54:12.279Z,68.55
2022-08-12T06:55:30.463Z,68.67
2022-08-12T06:57:02.610Z,67.88
2022-08-12T06:58:07.775Z,67.32
2022-08-12T06:59:14.439Z,67.07
2022-08-12T07:00:31.238Z,66.76
2022-08-12T07:01:39.914Z,65.87
2022-08-12T07:02:46.979Z,64.81
2022-08-12T07:03:51.519Z,65.59
2022-08-12T07:04:54.792Z,65.56
2022-08-12T07:06:00.373Z,64.24
2022-08-12T07:07:05.853Z,64.24
2022-08-12T07:08:11.269Z,64.10
2022-08-12T07:09:16.407Z,63.63
2022-08-12T07:10:44.731Z,63.96
2022-08-12T07:11:50.968Z,63.62
2022-08-12T07:12:58.346Z,63.41
2022-08-12T07:14:13.256Z,62.91
2022-08-12T07:15:18.793Z,62.93
2022-08-12T07:16:23.135Z,62.70
2022-08-12T07:17:26.481Z,62.35
2022-08-12T07:18:33.122Z,62.17
2022-08-12T07:19:40.674Z,61.61
2022-08-12T07:20:52.786Z,61.77
2022-08-12T07:22:02.550Z,61.92
2022-08-12T07:23:11.879Z,61.54
2022-08-12T07:24:16.816Z,61.45
2022-08-12T07:25:37.504Z,61.61
2022-08-12T07:26:45.842Z,61.34
2022-08-12T07:27:53.981Z,60.39
2022-08-12T07:28:58.034Z,60.54
2022-08-12T07:30:04.668Z,59.79
2022-08-12T07:31:11.790Z,59.86
2022-08-12T07:32:29.810Z,59.16
2022-08-12T07:33:33.910Z,59.40
2022-08-12T07:34:37.643Z,58.88
2022-08-12T07:35:45.620Z,58.67
2022-08-12T07:36:49.261Z,59.17
2022-08-12T07:37:53.641Z,58.93
2022-08-12T07:38:59.248Z,59.03
2022-08-12T07:40:02.298Z,58.97
2022-08-12T07:41:15.438Z,58.44
2022-08-12T07:42:19.112Z,58.39
2022-08-12T07:43:23.490Z,58.07
2022-08-12T07:44:27.603Z,57.72
2022-08-12T07:45:34.502Z,57.55
2022-08-12T07:46:41.174Z,57.43
2022-08-12T07:47:44.301Z,57.33
2022-08-12T07:48:50.963Z,56.93
2022-08-12T07:50:03.265Z,56.23
2022-08-12T07:51:10.430Z,56.37
2022-08-12T07:52:14.633Z,56.36
2022-08-12T07:53:19.083Z,56.37
2022-08-12T07:54:25.457Z,56.71
2022-08-12T07:55:28.763Z,55.95
2022-08-12T07:56:33.195Z,55.70
2022-08-12T07:57:42.326Z,55.89
2022-08-12T07:58:47.287Z,55.39
2022-08-12T07:59:50.751Z,55.26
2022-08-12T08:01:00.779Z,54.51
2022-08-12T08:02:04.121Z,54.50
2022-08-12T08:03:10.119Z,54.24
2022-08-12T08:04:31.778Z,54.11
2022-08-12T08:05:39.272Z,53.76
2022-08-12T08:06:45.119Z,53.94
2022-08-12T08:07:53.569Z,53.23
2022-08-12T08:08:57.809Z,52.93
2022-08-12T08:10:04.215Z,52.12
2022-08-12T08:11:22.190Z,51.85
2022-08-12T08:12:43.821Z,51.74
2022-08-12T08:13:49.552Z,51.63
2022-08-12T08:14:56.210Z,51.29
2022-08-12T08:16:03.734Z,51.26
2022-08-12T08:17:08.001Z,51.07
2022-08-12T08:18:26.707Z,51.05
2022-08-12T08:19:31.360Z,51.88
2022-08-12T08:20:38.268Z,51.43
2022-08-12T08:21:41.244Z,50.61
2022-08-12T08:22:45.446Z,50.83
2022-08-12T08:24:06.925Z,50.68
2022-08-12T08:25:34.569Z,50.24
2022-08-12T08:26:42.002Z,50.46
2022-08-12T08:27:46.050Z,50.16
2022-08-12T08:28:50.915Z,50.07
2022-08-12T08:29:58.101Z,49.87
2022-08-12T08:31:02.562Z,49.50
2022-08-12T08:32:06.469Z,49.23
2022-08-12T08:33:24.352Z,49.11
2022-08-12T08:34:53.077Z,48.66
2022-08-12T08:35:58.821Z,47.88
2022-08-12T08:37:07.692Z,47.82
2022-08-12T08:38:32.475Z,47.46
2022-08-12T08:39:39.440Z,47.61
2022-08-12T08:41:04.174Z,47.12
2022-08-12T08:42:26.621Z,46.67
2022-08-12T08:43:43.199Z,46.98
2022-08-12T08:44:54.039Z,47.09
2022-08-12T08:46:05.883Z,46.88
2022-08-12T08:47:10.958Z,46.36
2022-08-12T08:48:15.353Z,46.21
2022-08-12T08:49:18.793Z,45.80
2022-08-12T08:50:23.043Z,45.67
2022-08-12T08:51:26.192Z,45.28
2022-08-12T08:52:40.538Z,45.57
2022-08-12T08:53:51.865Z,45.58
2022-08-12T08:54:57.354Z,45.54
2022-08-12T08:56:05.041Z,45.04
2022-08-12T08:57:10.050Z,45.32
2022-08-12T08:58:13.295Z,44.96
2022-08-12T08:59:19.509Z,45.15
2022-08-12T09:00:22.919Z,44.46
2022-08-12T09:01:36.518Z,44.60
2022-08-12T09:02:41.825Z,44.39
2022-08-12T09:05:09.953Z,44.45
2022-08-12T09:05:25.863Z,45.39
2022-08-12T09:06:36.930Z,45.34
2022-08-12T09:09:14.675Z,46.14
2022-08-12T09:12:11.095Z,46.29
2022-08-12T09:14:10.603Z,46.03
2022-08-12T09:14:56.920Z,46.27
2022-08-12T09:16:00.901Z,46.46
2022-08-12T09:17:05.620Z,47.07
2022-08-12T09:18:11.422Z,47.21
2022-08-12T09:19:27.248Z,47.99
2022-08-12T09:20:34.131Z,47.72
2022-08-12T09:23:08.078Z,47.16
2022-08-12T09:24:27.847Z,47.12
2022-08-12T09:25:34.193Z,46.56
2022-08-12T09:26:46.632Z,46.27
2022-08-12T09:28:04.489Z,45.74
2022-08-12T09:29:12.160Z,46.14
2022-08-12T09:30:16.927Z,46.04
2022-08-12T09:32:07.128Z,45.94
2022-08-12T09:33:04.906Z,45.39
2022-08-12T09:34:25.500Z,45.04
2022-08-12T09:35:43.199Z,44.30
2022-08-12T09:36:57.640Z,44.58
2022-08-12T09:38:06.022Z,44.44
2022-08-12T09:40:05.758Z,44.51
2022-08-12T09:40:57.103Z,44.05
2022-08-12T09:42:41.027Z,44.08
2022-08-12T09:44:37.806Z,44.62
2022-08-12T09:46:19.616Z,44.45
2022-08-12T09:46:59.065Z,44.10
2022-08-12T09:48:06.856Z,43.99
2022-08-12T09:49:16.725Z,44.44
2022-08-12T09:50:26.982Z,44.62
2022-08-12T09:51:37.792Z,44.31
2022-08-12T09:52:54.342Z,44.02
2022-08-12T09:54:09.114Z,43.76
2022-08-12T09:56:06.219Z,43.46
2022-08-12T09:57:00.467Z,43.67
2022-08-12T09:58:45.371Z,43.87
2022-08-12T10:00:17.552Z,44.02
2022-08-12T10:01:14.990Z,44.75
2022-08-12T10:02:52.499Z,45.48
2022-08-12T10:04:03.482Z,45.65
2022-08-12T10:05:13.910Z,46.16
2022-08-12T10:06:31.426Z,45.88
2022-08-12T10:07:40.460Z,45.70
2022-08-12T10:08:45.150Z,45.21
2022-08-12T10:09:58.286Z,45.36
2022-08-12T10:11:22.236Z,45.25
2022-08-12T10:12:43.941Z,45.67
2022-08-12T10:14:08.052Z,46.04
2022-08-12T10:16:01.581Z,46.43
2022-08-12T10:16:45.663Z,46.41
2022-08-12T10:18:06.305Z,46.07
2022-08-12T10:19:17.761Z,46.08
2022-08-12T10:20:21.074Z,45.66
2022-08-12T10:21:36.241Z,45.82
2022-08-12T10:22:41.744Z,44.71
2022-08-12T10:23:48.342Z,44.34
2022-08-12T10:25:17.221Z,43.94
2022-08-12T10:26:40.292Z,43.84
2022-08-12T10:28:04.678Z,44.05
2022-08-12T10:30:02.859Z,44.53
2022-08-12T10:30:59.097Z,43.70
2022-08-12T10:32:20.551Z,43.74
2022-08-12T10:33:30.955Z,44.20
2022-08-12T10:34:39.976Z,44.60
2022-08-12T10:35:58.581Z,44.84
2022-08-12T10:37:15.594Z,45.09
2022-08-12T10:38:38.104Z,45.35
2022-08-12T10:40:07.052Z,45.58
2022-08-12T10:41:56.760Z,46.09
2022-08-12T10:43:09.067Z,45.69
2022-08-12T10:44:17.223Z,45.20
2022-08-12T10:45:20.757Z,44.33
2022-08-12T10:46:31.049Z,43.86
2022-08-12T10:48:07.359Z,43.24
2022-08-12T10:49:06.603Z,43.27
2022-08-12T10:50:58.318Z,43.49
2022-08-12T10:52:33.189Z,43.48
2022-08-12T10:53:44.364Z,43.94
2022-08-12T10:54:51.149Z,44.12
2022-08-12T10:55:56.385Z,44.14
2022-08-12T10:57:01.981Z,44.05
2022-08-12T10:58:15.324Z,44.00
2022-08-12T11:00:31.587Z,44.30
2022-08-12T11:01:48.889Z,44.66
2022-08-12T11:04:22.957Z,44.56
2022-08-12T11:04:35.539Z,44.64
2022-08-12T11:07:02.589Z,45.12
2022-08-12T11:07:03.334Z,45.04
2022-08-12T11:08:34.549Z,45.19
2022-08-12T11:09:41.545Z,45.40
2022-08-12T11:10:54.679Z,45.49
2022-08-12T11:12:35.566Z,45.63
2022-08-12T11:13:46.181Z,45.92
2022-08-12T11:14:52.362Z,46.02
2022-08-12T11:16:04.117Z,46.26
2022-08-12T11:17:42.900Z,46.25
2022-08-12T11:18:45.924Z,46.04
2022-08-12T11:19:50.560Z,45.66
2022-08-12T11:20:57.843Z,45.96
2022-08-12T11:22:03.415Z,46.23
2022-08-12T11:23:36.211Z,46.20
2022-08-12T11:24:35.932Z,45.69
2022-08-12T11:25:57.883Z,45.33
2022-08-12T11:27:07.607Z,44.57
2022-08-12T11:28:20.595Z,43.39
2022-08-12T11:30:05.685Z,42.81
2022-08-12T11:31:02.429Z,42.19
2022-08-12T11:32:07.532Z,41.72
2022-08-12T11:33:24.034Z,41.64
2022-08-12T11:34:53.224Z,41.37
2022-08-12T11:35:56.262Z,41.13
2022-08-12T11:37:05.173Z,40.67
2022-08-12T11:38:28.242Z,40.40
2022-08-12T11:40:03.508Z,40.58
2022-08-12T11:40:56.471Z,40.13
2022-08-12T11:42:02.362Z,40.25
2022-08-12T11:43:19.289Z,39.00
2022-08-12T11:44:36.665Z,38.50
2022-08-12T11:45:47.105Z,38.51
2022-08-12T11:46:53.245Z,38.96
2022-08-12T11:47:56.620Z,38.67
2022-08-12T11:49:02.117Z,38.17
2022-08-12T11:50:05.984Z,37.87
2022-08-12T11:51:10.866Z,37.62
2022-08-12T11:52:17.319Z,37.36
2022-08-12T11:53:57.842Z,37.92
2022-08-12T11:55:02.828Z,38.87
2022-08-12T11:56:08.408Z,38.48
2022-08-12T11:58:07.094Z,38.85
2022-08-12T12:02:03.034Z,39.28
2022-08-12T12:02:58.484Z,38.75
2022-08-12T12:04:04.651Z,38.76
2022-08-12T12:05:08.915Z,38.55
2022-08-12T12:06:17.121Z,38.22
2022-08-12T12:08:36.293Z,37.69
2022-08-12T12:08:51.628Z,37.39
2022-08-12T12:09:56.636Z,36.51
2022-08-12T12:11:01.019Z,35.80
2022-08-12T12:12:05.085Z,36.10
2022-08-12T12:13:23.334Z,35.99
2022-08-12T12:14:39.367Z,36.41
2022-08-12T12:15:44.057Z,35.89
2022-08-12T12:16:50.866Z,34.44
2022-08-12T12:17:55.729Z,35.02
2022-08-12T12:18:59.101Z,35.03
2022-08-12T12:20:09.189Z,34.45
2022-08-12T12:21:12.990Z,34.56
2022-08-12T12:22:23.178Z,34.24
2022-08-12T12:23:36.189Z,34.47
2022-08-12T12:24:43.509Z,34.63
2022-08-12T12:26:06.723Z,33.76
2022-08-12T12:27:10.968Z,34.24
2022-08-12T12:28:37.439Z,33.78
2022-08-12T12:30:19.273Z,34.32
2022-08-12T12:31:04.440Z,34.43
2022-08-12T12:32:11.662Z,34.52
2022-08-12T12:33:17.715Z,34.51
2022-08-12T12:34:30.231Z,34.14
2022-08-12T12:36:19.968Z,34.18
2022-08-12T12:37:00.776Z,34.06
2022-08-12T12:38:12.364Z,34.07
2022-08-12T12:39:17.634Z,34.17
2022-08-12T12:40:21.423Z,34.13
2022-08-12T12:42:47.572Z,33.95
2022-08-12T12:43:00.450Z,34.02
2022-08-12T12:44:07.275Z,33.75
2022-08-12T12:45:19.044Z,34.24
2022-08-12T12:46:28.077Z,33.96
2022-08-12T12:47:32.630Z,33.86
2022-08-12T12:48:44.527Z,33.35
2022-08-12T12:49:48.068Z,33.16
2022-08-12T12:51:49.158Z,33.16
2022-08-12T12:52:41.557Z,32.81
2022-08-12T12:54:07.560Z,32.59
2022-08-12T12:55:11.425Z,32.25
2022-08-12T12:56:34.210Z,32.41
2022-08-12T12:58:00.276Z,32.14
2022-08-12T12:59:06.285Z,32.51
2022-08-12T13:00:16.161Z,32.30
2022-08-12T13:01:27.972Z,32.94
2022-08-12T13:02:40.460Z,32.62
2022-08-12T13:03:49.066Z,32.93
2022-08-12T13:04:53.909Z,32.84
2022-08-12T13:06:00.821Z,32.14
2022-08-12T13:07:05.809Z,32.16
2022-08-12T13:08:28.473Z,32.20
2022-08-12T13:09:40.116Z,32.65
2022-08-12T13:10:51.043Z,32.79
2022-08-12T13:11:55.497Z,33.16
2022-08-12T13:14:08.045Z,33.22
2022-08-12T13:14:29.531Z,32.72
2022-08-12T13:15:45.461Z,32.65
2022-08-12T13:16:52.679Z,32.51
2022-08-12T13:18:04.867Z,32.00
2022-08-12T13:19:12.457Z,32.82
2022-08-12T13:20:38.075Z,33.35
2022-08-12T13:21:59.023Z,33.19
2022-08-12T13:23:03.063Z,32.88
2022-08-12T13:24:26.296Z,32.63
2022-08-12T13:25:37.419Z,32.97
2022-08-12T13:26:42.711Z,32.39
2022-08-12T13:27:49.375Z,31.73
2022-08-12T13:28:56.082Z,32.11
2022-08-12T13:30:06.976Z,31.62
2022-08-12T13:31:16.923Z,31.44
2022-08-12T13:32:30.881Z,31.72
2022-08-12T13:34:29.507Z,31.65
2022-08-12T13:35:04.674Z,31.78
2022-08-12T13:36:23.766Z,31.58
2022-08-12T13:37:28.265Z,31.76
2022-08-12T13:38:52.174Z,31.52
2022-08-12T13:39:57.479Z,31.60
2022-08-12T13:41:01.697Z,31.53
2022-08-12T13:42:14.586Z,31.39
2022-08-12T13:43:40.890Z,31.31
2022-08-12T13:44:43.470Z,31.47
2022-08-12T13:45:48.959Z,31.42
2022-08-12T13:46:58.959Z,32.14
2022-08-12T13:48:06.312Z,32.11
2022-08-12T13:49:20.443Z,32.10
2022-08-12T13:50:41.067Z,31.95
2022-08-12T13:51:51.393Z,31.72
2022-08-12T13:52:56.531Z,31.55
2022-08-12T13:54:05.101Z,31.70
2022-08-12T13:55:13.676Z,31.17
2022-08-12T13:56:18.020Z,30.23
2022-08-12T13:57:25.746Z,30.19
2022-08-12T13:58:30.558Z,30.43
2022-08-12T13:59:48.157Z,30.28
2022-08-12T14:00:58.859Z,31.33
2022-08-12T14:02:02.415Z,31.27
2022-08-12T14:03:07.147Z,31.65
2022-08-12T14:04:14.389Z,31.67
2022-08-12T14:05:30.089Z,31.57
2022-08-12T14:06:44.948Z,30.87
2022-08-12T14:08:04.641Z,30.45
2022-08-12T14:09:15.666Z,31.58
2022-08-12T14:10:37.964Z,31.33
2022-08-12T14:11:51.213Z,31.35
2022-08-12T14:13:02.316Z,31.84
2022-08-12T14:14:12.609Z,32.10
2022-08-12T14:15:16.627Z,32.21
2022-08-12T14:16:37.597Z,32.13
2022-08-12T14:17:47.698Z,31.69
2022-08-12T14:18:56.448Z,31.37
2022-08-12T14:20:15.376Z,31.32
2022-08-12T14:21:22.454Z,31.22
2022-08-12T14:22:27.254Z,31.11
2022-08-12T14:24:04.948Z,30.86
2022-08-12T14:25:00.574Z,30.81
2022-08-12T14:26:11.763Z,30.92
2022-08-12T14:27:38.143Z,31.05
2022-08-12T14:28:45.232Z,31.03
2022-08-12T14:30:06.222Z,31.42
2022-08-12T14:31:21.886Z,31.60
2022-08-12T14:32:25.564Z,31.77
2022-08-12T14:33:43.915Z,31.96
2022-08-12T14:34:49.328Z,31.84
2022-08-12T14:35:54.889Z,31.62
2022-08-12T14:36:58.235Z,31.61
2022-08-12T14:38:14.258Z,30.80
2022-08-12T14:39:19.847Z,31.39
2022-08-12T14:40:27.391Z,31.03
2022-08-12T14:41:37.294Z,31.31
2022-08-12T14:42:58.627Z,31.52
2022-08-12T14:44:58.039Z,31.38
2022-08-12T14:45:44.947Z,31.82
2022-08-12T14:46:55.970Z,31.35
2022-08-12T14:47:59.170Z,31.69
2022-08-12T14:49:27.572Z,31.71
2022-08-12T14:50:58.723Z,31.45
2022-08-12T14:52:44.083Z,31.38
2022-08-12T14:57:57.025Z,30.36
2022-08-12T14:59:20.591Z,30.75
2022-08-12T15:00:52.196Z,30.63
2022-08-12T15:01:57.066Z,30.86
2022-08-12T15:03:04.857Z,31.01
2022-08-12T15:04:13.607Z,31.14
2022-08-12T15:06:05.580Z,31.16
2022-08-12T15:06:52.568Z,31.57
2022-08-12T15:08:04.814Z,31.49
2022-08-12T15:09:12.195Z,31.52
2022-08-12T15:10:31.601Z,31.74
2022-08-12T15:11:55.112Z,31.82
2022-08-12T15:12:59.289Z,31.55
2022-08-12T15:14:06.010Z,31.42
2022-08-12T15:15:10.539Z,31.65
2022-08-12T15:16:18.862Z,31.92
2022-08-12T15:17:38.005Z,32.07
2022-08-12T15:18:55.150Z,32.44
2022-08-12T15:20:32.086Z,32.14
2022-08-12T15:21:24.419Z,32.37
2022-08-12T15:22:37.872Z,32.26
2022-08-12T15:23:45.648Z,32.05
2022-08-12T15:24:59.000Z,32.21
2022-08-12T15:26:06.267Z,32.00
2022-08-12T15:27:09.630Z,32.17
2022-08-12T15:28:21.430Z,31.57
2022-08-12T15:29:28.748Z,31.96
2022-08-12T15:30:33.789Z,32.21
2022-08-12T15:32:00.003Z,32.18
2022-08-12T15:33:12.970Z,32.61
2022-08-12T15:34:19.543Z,32.41
2022-08-12T15:35:23.310Z,32.57
2022-08-12T15:36:54.951Z,32.53
2022-08-12T15:38:10.087Z,32.28
2022-08-12T15:39:17.560Z,32.63
2022-08-12T15:40:30.390Z,32.52